METAR AND TAF INFORMATION
METAR FOR DIAP
ADDS - METARS form results

(2044 UTC 21 May 2018)
Data provider http://aviationweather.gov/adds/metars/
 
METAR text: DIAP 212030Z 20008KT 9999 FEW012 28/25 Q1010 NOSIG
Conditions at: DIAP (ABIDJAN/PORT BOU, CI) observed 2030 UTC 21 May 2018
Temperature: 28.0°C (82°F)
Dewpoint: 25.0°C (77°F) [RH = 84%]
Pressure (altimeter): 29.82 inches Hg (1010.0 mb)
Winds: from the SSW (200 degrees) at 9 MPH (8 knots; 4.2 m/s)
Visibility: 6 or more miles (10+ km)
Ceiling: at least 12,000 feet AGL
Clouds: few clouds at 1200 feet AGL
Weather: no significant weather observed at this time

METAR text: DIAP 212000Z 20008KT 9999 FEW012 FEW020CB 28/25 Q1010 NOSIG
Conditions at: DIAP (ABIDJAN/PORT BOU, CI) observed 2000 UTC 21 May 2018
Temperature: 28.0°C (82°F)
Dewpoint: 25.0°C (77°F) [RH = 84%]
Pressure (altimeter): 29.82 inches Hg (1010.0 mb)
Winds: from the SSW (200 degrees) at 9 MPH (8 knots; 4.2 m/s)
Visibility: 6 or more miles (10+ km)
Ceiling: at least 12,000 feet AGL
Clouds: few clouds at 1200 feet AGL
few clouds at 2000 feet AGL
Weather: no significant weather observed at this time

Forecast for: DIAP (ABIDJAN/PORT BOU, CI)
Text: TAF DIAP 211700Z 2118/2224 22008KT 9999 SCT012
Forecast period: 1800 UTC 21 May 2018 to 0000 UTC 23 May 2018
Forecast type: FROM: standard forecast or significant change
Winds: from the SW (220 degrees) at 9 MPH (8 knots; 4.2 m/s)
Visibility: 6 or more miles (10+ km)
Clouds: scattered clouds at 1200 feet AGL
Weather: no significant weather forecast for this period
Forecast for: DIAP (ABIDJAN/PORT BOU, CI)
Text: TAF DIAP 211700Z 2118/2224 22008KT 9999 SCT012
Forecast period: 1800 UTC 21 May 2018 to 0000 UTC 23 May 2018
Forecast type: FROM: standard forecast or significant change
Winds: from the SW (220 degrees) at 9 MPH (8 knots; 4.2 m/s)
Visibility: 6 or more miles (10+ km)
Clouds: scattered clouds at 1200 feet AGL
Weather: no significant weather forecast for this period
Forecast for: DIAP (ABIDJAN/PORT BOU, CI)
Text: TAF DIAP 211700Z 2118/2224 22008KT 9999 SCT012
Forecast period: 1800 to 2200 UTC 21 May 2018
Forecast type: TEMPORARY: The following changes expected for less than half the time period
Ceiling: 1200 feet AGL
Clouds: broken clouds at 1200 feet AGL
few clouds at 2000 feet AGL
Weather: no significant weather forecast for this period
Forecast for: DIAP (ABIDJAN/PORT BOU, CI)
Text: TAF DIAP 211700Z 2118/2224 22008KT 9999 SCT012
Forecast period: 1800 to 2200 UTC 21 May 2018
Forecast type: TEMPORARY: The following changes expected for less than half the time period
Ceiling: 1200 feet AGL
Clouds: broken clouds at 1200 feet AGL
few clouds at 2000 feet AGL
Weather: no significant weather forecast for this period
Forecast for: DIAP (ABIDJAN/PORT BOU, CI)
Text: TAF DIAP 211700Z 2118/2224 22008KT 9999 SCT012
Forecast period: 1200 to 1800 UTC 22 May 2018
Forecast type: TEMPORARY: The following changes expected for less than half the time period
Ceiling: 1200 feet AGL
Clouds: broken clouds at 1200 feet AGL
Weather: no significant weather forecast for this period
Forecast for: DIAP (ABIDJAN/PORT BOU, CI)
Text: TAF DIAP 211700Z 2118/2224 22008KT 9999 SCT012
Forecast period: 1200 to 1800 UTC 22 May 2018
Forecast type: TEMPORARY: The following changes expected for less than half the time period
Ceiling: 1200 feet AGL
Clouds: broken clouds at 1200 feet AGL
Weather: no significant weather forecast for this period

 AIRPORT MAP

 RUNWAY INFORMATION
Runway 03 Runway length 9843 ft Runway width 164 ft
Runway elevation 21 ft Runway displaced threshold 0 ft Runway heading 23
Runway 21 Runway length 9843 ft Runway width 164 ft
Runway elevation 11 ft Runway displaced threshold 0 ft Runway heading 203

 AIRPORT FREQUENCIES
Type A/G Name RDO Frequency 568 MHZ
Type ACC Name CON Frequency 121.1 MHZ
Type AFIS Name INFO Frequency 129.1 MHZ
Type ATIS Name ATIS Frequency 126.6 MHZ
Type MISC Name VHF/DF Frequency 118.1 MHZ
Type TWR Name TWR Frequency 118.1 MHZ

 AIRPORT NEAR NAVIGATION AIDS
Type VOR-DME Name Abidjan Frequency 114300 KHZ
Type NDB Name Abidjan Frequency 306 KHZ
Type NDB Name Abidjan Felix Houphouet Boigny Frequency 294 KHZ



Powered by Virtual Airlines Manager [v2.6.2]